Time;durP1;ratioP1;P1;durP2;ratioP2;P2;SDS_P1;SDS_P2;PMS_P1;PMS_P2;Temp;Humidity;BMP_temperature;BMP_pressure;BME280_temperature;BME280_humidity;BME280_pressure;Samples;Min_cycle;Max_cycle;Signal;HPM_P1;HPM_P2
2023/03/05 00:00:13;;;;;;;8.82;2.03;;;3.40;99.90;;;;;;5052082;28;20045;-83
2023/03/05 00:02:40;;;;;;;9.60;1.60;;;3.40;99.90;;;;;;5068928;28;20083;-84
2023/03/05 00:05:06;;;;;;;7.22;1.70;;;3.80;99.90;;;;;;5067731;28;20409;-84
2023/03/05 00:07:32;;;;;;;10.20;1.77;;;3.40;99.90;;;;;;5068473;28;20527;-84
2023/03/05 00:09:59;;;;;;;10.88;2.00;;;3.40;99.90;;;;;;5068789;28;20040;-84
2023/03/05 00:12:25;;;;;;;8.05;1.92;;;;;;;;;;5069394;28;20044;-85
2023/03/05 00:14:51;;;;;;;9.00;1.80;;;3.40;99.90;;;;;;5056093;28;20043;-84
2023/03/05 00:17:17;;;;;;;10.38;2.25;;;3.50;99.90;;;;;;5049668;28;20040;-85
2023/03/05 00:19:43;;;;;;;10.35;1.88;;;4.90;99.90;;;;;;5014987;28;20199;-84
2023/03/05 00:22:08;;;;;;;6.93;1.83;;;3.50;99.90;;;;;;5063628;28;20036;-85
2023/03/05 00:24:34;;;;;;;11.95;1.90;;;3.90;99.90;;;;;;5052085;28;20043;-84
2023/03/05 00:27:00;;;;;;;10.27;1.98;;;4.60;99.90;;;;;;5065300;28;20044;-85
2023/03/05 00:29:27;;;;;;;8.02;1.88;;;4.20;99.90;;;;;;5066597;28;20063;-85
2023/03/05 00:31:53;;;;;;;11.85;2.25;;;4.80;99.90;;;;;;5047182;28;20052;-84
2023/03/05 00:34:19;;;;;;;12.50;2.25;;;3.50;99.90;;;;;;5066864;28;20128;-84
2023/03/05 00:36:50;;;;;;;12.55;2.55;;;3.50;99.90;;;;;;5065586;28;20032;-85
2023/03/05 00:39:17;;;;;;;6.70;1.77;;;3.50;99.90;;;;;;5063547;28;20317;-84
2023/03/05 00:41:43;;;;;;;10.20;2.13;;;3.50;99.90;;;;;;5066904;28;20131;-84
2023/03/05 00:44:09;;;;;;;9.70;1.95;;;5.10;99.90;;;;;;5050823;28;20124;-84
2023/03/05 00:46:35;;;;;;;10.48;1.92;;;3.50;99.90;;;;;;5057255;28;20238;-84
2023/03/05 00:49:01;;;;;;;8.25;1.90;;;;;;;;;;5066499;28;20040;-84
2023/03/05 00:51:27;;;;;;;14.18;2.15;;;3.50;99.90;;;;;;5067876;28;20036;-86
2023/03/05 00:53:54;;;;;;;8.95;1.98;;;3.60;99.90;;;;;;5068163;28;20392;-83
2023/03/05 00:56:20;;;;;;;9.85;1.88;;;3.50;99.90;;;;;;5068963;28;20043;-86
2023/03/05 00:58:46;;;;;;;10.30;1.88;;;4.40;99.90;;;;;;5066260;28;20123;-84
2023/03/05 01:01:12;;;;;;;7.15;1.58;;;5.50;99.90;;;;;;5067650;28;20128;-84
2023/03/05 01:03:38;;;;;;;7.00;1.70;;;4.80;99.90;;;;;;5068174;28;20494;-84
2023/03/05 01:06:06;;;;;;;7.40;1.80;;;4.90;99.90;;;;;;5066884;28;20145;-86
2023/03/05 01:08:33;;;;;;;8.40;2.08;;;3.60;99.90;;;;;;5072576;28;20515;-84
2023/03/05 01:10:59;;;;;;;10.85;1.90;;;4.50;99.90;;;;;;5062638;28;20044;-84
2023/03/05 01:13:24;;;;;;;11.57;2.20;;;5.10;99.90;;;;;;5057935;28;20035;-85
2023/03/05 01:15:50;;;;;;;9.32;2.17;;;3.60;99.90;;;;;;5063594;28;20048;-84
2023/03/05 01:18:18;;;;;;;13.07;1.83;;;3.60;99.90;;;;;;5065784;28;20060;-85
2023/03/05 01:20:44;;;;;;;9.57;1.80;;;3.60;99.90;;;;;;5065554;28;20051;-84
2023/03/05 01:23:10;;;;;;;7.55;1.85;;;3.60;99.90;;;;;;5067631;28;20043;-84
2023/03/05 01:25:35;;;;;;;6.45;1.50;;;3.50;99.90;;;;;;5052966;28;20044;-84
2023/03/05 01:28:02;;;;;;;11.98;1.95;;;5.20;99.90;;;;;;5034371;28;20068;-85
2023/03/05 01:30:27;;;;;;;7.72;1.88;;;5.00;99.90;;;;;;5067787;28;20044;-84
2023/03/05 01:32:54;;;;;;;8.63;1.80;;;4.80;99.90;;;;;;5068824;28;20547;-85
2023/03/05 01:35:21;;;;;;;9.52;1.70;;;3.30;99.90;;;;;;5070529;28;20460;-84
2023/03/05 01:37:47;;;;;;;5.47;1.60;;;3.80;99.90;;;;;;5072198;28;20043;-85
2023/03/05 01:40:15;;;;;;;9.95;1.63;;;3.30;99.90;;;;;;5071275;28;20044;-82
2023/03/05 01:42:54;;;;;;;7.68;1.60;;;3.50;99.90;;;;;;5070173;28;20560;-84
2023/03/05 01:45:19;;;;;;;11.40;2.00;;;3.40;99.90;;;;;;5065213;28;20028;-85
2023/03/05 01:47:45;;;;;;;10.52;2.03;;;4.20;99.90;;;;;;5070087;28;20469;-84
2023/03/05 01:50:23;;;;;;;9.20;1.80;;;4.80;99.90;;;;;;5056608;28;20044;-85
2023/03/05 01:52:53;;;;;;;8.05;1.50;;;3.40;99.90;;;;;;5068796;28;20577;-86
2023/03/05 01:55:22;;;;;;;8.13;1.60;;;4.80;99.90;;;;;;5064658;28;20040;-84
2023/03/05 01:57:59;;;;;;;5.15;1.40;;;3.10;99.90;;;;;;5068411;28;20032;-85
2023/03/05 02:00:30;;;;;;;8.27;1.60;;;3.40;99.90;;;;;;5060749;28;20033;-84
2023/03/05 02:03:00;;;;;;;8.80;1.67;;;5.20;99.90;;;;;;5071181;28;20049;-84
2023/03/05 02:05:30;;;;;;;8.57;1.45;;;3.40;99.90;;;;;;5052628;28;20041;-84
2023/03/05 02:08:01;;;;;;;7.40;1.60;;;3.40;99.90;;;;;;5053459;28;20080;-85
2023/03/05 02:10:35;;;;;;;6.28;1.50;;;3.40;99.90;;;;;;5072230;28;20036;-84
2023/03/05 02:13:05;;;;;;;7.75;1.75;;;5.00;99.90;;;;;;5058594;28;20393;-83
2023/03/05 02:15:32;;;;;;;9.32;1.65;;;4.60;99.90;;;;;;5069766;28;20513;-83
2023/03/05 02:17:58;;;;;;;8.48;1.83;;;5.10;99.90;;;;;;5070289;28;20049;-84
2023/03/05 02:20:27;;;;;;;8.43;1.88;;;3.40;99.90;;;;;;5051895;28;20055;-85
2023/03/05 02:22:53;;;;;;;9.30;1.90;;;4.30;99.90;;;;;;5052267;28;20484;-85
2023/03/05 02:25:22;;;;;;;13.00;1.85;;;3.40;99.90;;;;;;5067982;28;20043;-84
2023/03/05 02:28:13;;;;;;;9.10;1.52;;;3.30;99.90;;;;;;5070104;28;20056;-84
2023/03/05 02:30:39;;;;;;;4.88;1.70;;;3.30;99.90;;;;;;5070391;28;20094;-85
2023/03/05 02:33:05;;;;;;;7.15;1.67;;;3.30;99.90;;;;;;5067167;28;20404;-83
2023/03/05 02:35:31;;;;;;;8.90;2.90;;;4.60;99.90;;;;;;5050947;28;20044;-83
2023/03/05 02:37:57;;;;;;;9.27;2.75;;;4.50;99.90;;;;;;5059013;28;20412;-84
2023/03/05 02:40:23;;;;;;;9.30;2.60;;;4.60;99.90;;;;;;5068587;28;20116;-84
2023/03/05 02:42:48;;;;;;;10.15;3.05;;;4.60;99.90;;;;;;5068499;28;20344;-84
2023/03/05 02:45:15;;;;;;;12.00;2.78;;;3.20;99.90;;;;;;5066906;28;20032;-84
2023/03/05 02:47:40;;;;;;;13.07;3.17;;;3.20;99.90;;;;;;5051772;28;20070;-83
2023/03/05 02:50:09;;;;;;;10.52;2.90;;;3.20;99.90;;;;;;5067986;28;20048;-84
2023/03/05 02:52:34;;;;;;;11.27;2.90;;;3.20;99.90;;;;;;5080543;28;20075;-84
2023/03/05 02:55:00;;;;;;;9.82;2.83;;;4.70;99.90;;;;;;5068440;28;20473;-84
2023/03/05 02:57:26;;;;;;;9.68;2.83;;;3.20;99.90;;;;;;5067212;28;20094;-84
2023/03/05 02:59:52;;;;;;;14.10;2.85;;;3.20;99.90;;;;;;5069827;28;20069;-84
2023/03/05 03:02:17;;;;;;;10.07;2.40;;;3.20;99.90;;;;;;5067145;28;20115;-85
2023/03/05 03:04:44;;;;;;;11.98;2.47;;;3.20;99.90;;;;;;5066038;28;20039;-85
2023/03/05 03:07:13;;;;;;;9.70;2.53;;;3.20;99.90;;;;;;5068309;28;20032;-84
2023/03/05 03:09:39;;;;;;;10.65;3.47;;;4.30;99.90;;;;;;5067315;28;20145;-84
2023/03/05 03:12:06;;;;;;;11.55;3.60;;;3.30;99.90;;;;;;5083905;28;20101;-84
2023/03/05 03:14:37;;;;;;;8.02;2.17;;;3.30;99.90;;;;;;5031755;28;20048;-86
2023/03/05 03:17:07;;;;;;;8.98;1.88;;;3.30;99.90;;;;;;5051371;28;20532;-85
2023/03/05 03:19:34;;;;;;;7.95;1.80;;;3.30;99.90;;;;;;5069235;28;20067;-84
2023/03/05 03:22:00;;;;;;;9.90;1.80;;;3.20;99.90;;;;;;5067986;28;20052;-84
2023/03/05 03:24:26;;;;;;;7.55;1.67;;;3.60;99.90;;;;;;5069649;28;20583;-84
2023/03/05 03:26:52;;;;;;;6.13;1.70;;;4.40;99.90;;;;;;5068592;28;20409;-85
2023/03/05 03:29:17;;;;;;;10.55;1.98;;;3.30;99.90;;;;;;5068175;28;20094;-84
2023/03/05 03:31:44;;;;;;;4.68;1.48;;;3.20;99.90;;;;;;5068959;28;20047;-85
2023/03/05 03:34:11;;;;;;;10.90;1.80;;;3.20;99.90;;;;;;5068774;28;20029;-85
2023/03/05 03:36:38;;;;;;;6.55;1.55;;;4.40;99.90;;;;;;5035894;28;20045;-84
2023/03/05 03:39:04;;;;;;;7.55;1.67;;;3.10;99.90;;;;;;5069187;28;20043;-84
2023/03/05 03:41:31;;;;;;;7.70;1.80;;;3.90;99.90;;;;;;5068954;28;20037;-85
2023/03/05 03:43:57;;;;;;;6.85;1.70;;;3.00;99.90;;;;;;5051613;28;20059;-85
2023/03/05 03:46:22;;;;;;;8.85;1.70;;;3.10;99.90;;;;;;5068749;28;20033;-85
2023/03/05 03:48:51;;;;;;;6.35;1.40;;;3.80;99.90;;;;;;5068555;28;20048;-85
2023/03/05 03:51:17;;;;;;;6.35;1.75;;;3.40;99.90;;;;;;5065281;28;20161;-83
2023/03/05 03:53:43;;;;;;;10.02;1.50;;;3.00;99.90;;;;;;5067450;28;20485;-85
2023/03/05 03:56:09;;;;;;;8.27;1.75;;;3.00;99.90;;;;;;5058996;28;20116;-84
2023/03/05 03:58:34;;;;;;;7.10;1.38;;;3.00;99.90;;;;;;5052002;28;20036;-84
2023/03/05 04:01:00;;;;;;;8.23;1.70;;;3.00;99.90;;;;;;5066139;28;20047;-85
2023/03/05 04:03:26;;;;;;;10.70;1.83;;;3.40;99.90;;;;;;5051216;28;20127;-84
2023/03/05 04:05:52;;;;;;;7.55;1.70;;;;;;;;;;5050108;28;20039;-84
2023/03/05 04:08:18;;;;;;;7.55;1.60;;;3.00;99.90;;;;;;5068514;28;20051;-85
2023/03/05 04:10:43;;;;;;;7.47;1.60;;;2.90;99.90;;;;;;5067944;28;20036;-85
2023/03/05 04:13:09;;;;;;;5.13;1.40;;;3.80;99.90;;;;;;5067881;28;20075;-85
2023/03/05 04:15:35;;;;;;;6.50;1.67;;;4.30;99.90;;;;;;5067045;28;20032;-84
2023/03/05 04:18:00;;;;;;;7.28;1.60;;;2.80;99.90;;;;;;5067952;28;20036;-85
2023/03/05 04:20:26;;;;;;;6.78;1.50;;;2.80;99.90;;;;;;5064978;28;20040;-84
2023/03/05 04:22:52;;;;;;;8.10;1.70;;;2.80;99.90;;;;;;5067172;28;20033;-85
2023/03/05 04:25:17;;;;;;;8.77;1.83;;;4.50;99.90;;;;;;5067680;28;20040;-84
2023/03/05 04:27:43;;;;;;;7.47;1.77;;;2.70;99.90;;;;;;5045293;28;20515;-85
2023/03/05 04:30:15;;;;;;;6.53;1.60;;;3.60;99.90;;;;;;5084131;28;20055;-84
2023/03/05 04:32:41;;;;;;;9.18;1.85;;;2.80;99.90;;;;;;5066898;28;20056;-85
2023/03/05 04:35:07;;;;;;;6.47;1.58;;;3.80;99.90;;;;;;5066857;28;20044;-85
2023/03/05 04:37:33;;;;;;;7.70;1.83;;;2.70;99.90;;;;;;5066518;28;20041;-83
2023/03/05 04:39:59;;;;;;;4.95;1.30;;;3.90;99.90;;;;;;5030512;28;20485;-85
2023/03/05 04:42:25;;;;;;;8.60;1.63;;;2.80;99.90;;;;;;5062387;28;20489;-84
2023/03/05 04:44:51;;;;;;;6.45;1.73;;;2.70;99.90;;;;;;5053241;28;20045;-85
2023/03/05 04:47:17;;;;;;;6.82;1.58;;;3.80;99.90;;;;;;5066812;28;20044;-84
2023/03/05 04:49:43;;;;;;;7.00;1.70;;;2.80;99.90;;;;;;5034544;28;20485;-85
2023/03/05 04:52:11;;;;;;;9.43;1.55;;;2.80;99.90;;;;;;5068388;28;20135;-85
2023/03/05 04:54:37;;;;;;;7.70;1.55;;;2.80;99.90;;;;;;5049064;28;21174;-85
2023/03/05 04:57:03;;;;;;;7.40;1.67;;;2.80;99.90;;;;;;5050243;28;20120;-83
2023/03/05 04:59:29;;;;;;;9.20;1.70;;;4.30;99.90;;;;;;5069344;28;20045;-85
2023/03/05 05:01:55;;;;;;;7.45;1.77;;;3.40;99.90;;;;;;5072268;28;20036;-84
2023/03/05 05:04:21;;;;;;;8.65;2.00;;;2.80;99.90;;;;;;5054349;28;20074;-83
2023/03/05 05:06:46;;;;;;;9.48;2.10;;;3.80;99.90;;;;;;5053909;28;20114;-85
2023/03/05 05:09:12;;;;;;;15.07;4.35;;;4.20;99.90;;;;;;5079024;28;20040;-84
2023/03/05 05:11:38;;;;;;;14.23;4.63;;;2.90;99.90;;;;;;5065180;28;20090;-84
2023/03/05 05:14:04;;;;;;;15.95;5.95;;;2.80;99.90;;;;;;5048259;28;20089;-85
2023/03/05 05:16:30;;;;;;;12.27;5.32;;;2.80;99.90;;;;;;5086327;28;20052;-85
2023/03/05 05:18:55;;;;;;;12.30;4.50;;;3.30;99.90;;;;;;5070880;28;20046;-85
2023/03/05 05:21:21;;;;;;;13.10;3.97;;;2.80;99.90;;;;;;5037218;28;20287;-84
2023/03/05 05:23:47;;;;;;;9.10;3.15;;;2.80;99.90;;;;;;5071621;28;20032;-85
2023/03/05 05:26:14;;;;;;;9.35;2.20;;;2.80;99.90;;;;;;5070440;28;20040;-84
2023/03/05 05:28:42;;;;;;;12.32;2.20;;;2.80;99.90;;;;;;5071732;28;20421;-84
2023/03/05 05:31:09;;;;;;;6.97;1.98;;;3.50;99.90;;;;;;5071123;28;20040;-84
2023/03/05 05:33:35;;;;;;;9.73;1.90;;;3.90;99.90;;;;;;5078892;28;20092;-83
2023/03/05 05:36:05;;;;;;;7.35;1.70;;;2.80;99.90;;;;;;5073479;28;20442;-84
2023/03/05 05:38:31;;;;;;;8.70;1.92;;;2.80;99.90;;;;;;5071364;28;20080;-84
2023/03/05 05:41:05;;;;;;;10.43;1.77;;;2.70;99.90;;;;;;5038049;28;20135;-84
2023/03/05 05:43:31;;;;;;;9.98;1.85;;;2.80;99.90;;;;;;5052443;28;20032;-84
2023/03/05 05:46:02;;;;;;;6.82;1.60;;;2.70;99.90;;;;;;5069561;28;20040;-86
2023/03/05 05:48:30;;;;;;;9.38;1.90;;;2.70;99.90;;;;;;5068248;28;20120;-84
2023/03/05 05:50:56;;;;;;;7.80;1.98;;;2.70;99.90;;;;;;5067770;28;20532;-84
2023/03/05 05:53:22;;;;;;;9.02;1.90;;;2.80;99.90;;;;;;5067241;28;20039;-85
2023/03/05 05:55:48;;;;;;;10.10;2.25;;;;;;;;;;5070874;28;20436;-85
2023/03/05 05:58:14;;;;;;;8.10;1.70;;;2.60;99.90;;;;;;5067803;28;20025;-84
2023/03/05 06:00:40;;;;;;;7.57;1.63;;;2.60;99.90;;;;;;5053827;28;20121;-85
2023/03/05 06:03:06;;;;;;;7.28;1.95;;;2.20;99.90;;;;;;5076425;28;20264;-84
2023/03/05 06:05:33;;;;;;;6.68;1.50;;;2.50;99.90;;;;;;5075908;28;20041;-85
2023/03/05 06:07:59;;;;;;;7.18;1.60;;;2.50;99.90;;;;;;5036815;28;20040;-83
2023/03/05 06:10:24;;;;;;;7.65;1.58;;;2.50;99.90;;;;;;5080245;28;20028;-85
2023/03/05 06:12:50;;;;;;;10.85;2.05;;;4.00;99.90;;;;;;5051373;28;20549;-85
2023/03/05 06:15:17;;;;;;;11.10;1.92;;;2.40;99.90;;;;;;5070025;28;20497;-84
2023/03/05 06:17:43;;;;;;;6.28;1.60;;;3.70;99.90;;;;;;5069030;28;20075;-86
2023/03/05 06:20:10;;;;;;;5.38;1.70;;;2.50;99.90;;;;;;5057736;28;20079;-84
2023/03/05 06:22:36;;;;;;;8.95;1.75;;;2.40;99.90;;;;;;5061131;28;20071;-84
2023/03/05 06:25:04;;;;;;;8.45;1.60;;;2.50;99.90;;;;;;5070527;28;20375;-84
2023/03/05 06:27:30;;;;;;;7.45;1.70;;;2.50;99.90;;;;;;5069334;28;20044;-85
2023/03/05 06:29:56;;;;;;;7.22;1.63;;;;;;;;;;5049243;28;20064;-86
2023/03/05 06:32:22;;;;;;;9.55;1.70;;;2.50;99.90;;;;;;5069829;28;20045;-85
2023/03/05 06:34:48;;;;;;;6.80;1.70;;;3.80;99.90;;;;;;5077248;28;20178;-84
2023/03/05 06:37:14;;;;;;;8.70;1.65;;;3.60;99.90;;;;;;5086557;28;20051;-84
2023/03/05 06:39:40;;;;;;;6.43;1.60;;;3.40;99.90;;;;;;5068896;28;20405;-86
2023/03/05 06:42:06;;;;;;;7.30;1.80;;;3.60;99.90;;;;;;5086624;28;20067;-85
2023/03/05 06:44:32;;;;;;;8.05;1.67;;;2.70;99.90;;;;;;5067949;28;20036;-83
2023/03/05 06:46:58;;;;;;;13.60;1.90;;;2.70;99.90;;;;;;5071210;28;20036;-84
2023/03/05 06:49:23;;;;;;;10.70;1.95;;;3.40;99.90;;;;;;5068989;28;20638;-85
2023/03/05 06:51:49;;;;;;;8.82;1.75;;;4.10;99.90;;;;;;5050804;28;20040;-83
2023/03/05 06:54:16;;;;;;;11.20;2.00;;;2.80;99.90;;;;;;5067618;28;20032;-84
2023/03/05 06:56:44;;;;;;;9.75;1.73;;;2.80;99.90;;;;;;5034966;28;20046;-84
2023/03/05 06:59:11;;;;;;;9.90;1.50;;;2.80;99.90;;;;;;5050514;28;20176;-85
2023/03/05 07:01:37;;;;;;;8.18;1.73;;;4.40;99.90;;;;;;5034238;28;20573;-84
2023/03/05 07:04:03;;;;;;;9.05;1.90;;;3.70;99.90;;;;;;5050872;28;20036;-84
2023/03/05 07:06:35;;;;;;;10.27;1.80;;;3.20;99.90;;;;;;5050911;28;20132;-85
2023/03/05 07:09:02;;;;;;;7.18;1.52;;;2.90;99.90;;;;;;5069827;28;20098;-84
2023/03/05 07:11:29;;;;;;;6.18;1.70;;;4.30;99.90;;;;;;5067648;28;20125;-84
2023/03/05 07:13:54;;;;;;;10.85;1.80;;;4.50;99.90;;;;;;5066713;28;20501;-85
2023/03/05 07:16:23;;;;;;;6.95;1.50;;;2.50;99.90;;;;;;5049956;28;20070;-85
2023/03/05 07:18:51;;;;;;;7.90;1.63;;;3.00;99.90;;;;;;5068147;28;20040;-85
2023/03/05 07:21:23;;;;;;;6.38;1.75;;;4.30;99.90;;;;;;5063753;28;20040;-83
2023/03/05 07:23:49;;;;;;;8.50;2.03;;;4.30;99.90;;;;;;5068557;28;20047;-84
2023/03/05 07:26:15;;;;;;;7.47;2.08;;;3.90;99.90;;;;;;5060809;28;20093;-84
2023/03/05 07:28:42;;;;;;;12.23;2.30;;;3.20;99.90;;;;;;5070364;28;20453;-85
2023/03/05 07:31:18;;;;;;;9.35;1.70;;;4.70;99.90;;;;;;5060791;28;20040;-83
2023/03/05 07:33:45;;;;;;;11.02;2.10;;;3.30;99.90;;;;;;5056699;28;20037;-84
2023/03/05 07:36:11;;;;;;;8.65;1.80;;;5.50;99.90;;;;;;5044226;28;20069;-84
2023/03/05 07:38:37;;;;;;;9.77;2.67;;;3.40;99.90;;;;;;5048967;28;20064;-84
2023/03/05 07:41:05;;;;;;;10.93;3.28;;;3.50;99.90;;;;;;5052042;28;20291;-84
2023/03/05 07:43:32;;;;;;;8.55;3.00;;;3.50;99.90;;;;;;5068261;28;20050;-84
2023/03/05 07:45:57;;;;;;;8.90;2.80;;;5.20;99.90;;;;;;5065923;28;20572;-84
2023/03/05 07:48:23;;;;;;;9.32;2.10;;;5.10;99.90;;;;;;5062424;28;20071;-84
2023/03/05 07:50:49;;;;;;;6.45;1.70;;;5.00;99.90;;;;;;5062711;28;20055;-84
2023/03/05 07:53:15;;;;;;;6.97;1.60;;;3.80;99.90;;;;;;5046494;28;20451;-84
2023/03/05 07:55:45;;;;;;;7.90;1.60;;;3.80;99.90;;;;;;5028709;28;20040;-84
2023/03/05 07:58:12;;;;;;;7.85;1.60;;;5.70;99.90;;;;;;5051203;28;20489;-84
2023/03/05 08:00:39;;;;;;;8.85;1.80;;;3.90;99.90;;;;;;5047142;28;20036;-84
2023/03/05 08:03:05;;;;;;;5.97;1.40;;;5.30;99.90;;;;;;5034230;28;20055;-84
2023/03/05 08:05:31;;;;;;;7.22;1.45;;;4.10;99.90;;;;;;5063346;28;20334;-84
2023/03/05 08:07:57;;;;;;;8.50;1.63;;;4.20;99.90;;;;;;5067973;28;20397;-85
2023/03/05 08:10:24;;;;;;;9.70;1.50;;;6.20;99.90;;;;;;5061652;28;20458;-84
2023/03/05 08:12:49;;;;;;;11.77;2.03;;;4.60;99.90;;;;;;5066967;28;20050;-83
2023/03/05 08:15:15;;;;;;;6.82;1.80;;;5.60;99.90;;;;;;5048369;28;20041;-84
2023/03/05 08:17:41;;;;;;;8.65;1.70;;;4.50;99.90;;;;;;5071247;28;20048;-85
2023/03/05 08:20:10;;;;;;;7.00;1.67;;;4.60;99.90;;;;;;5057369;28;20076;-84
2023/03/05 08:22:36;;;;;;;6.80;1.75;;;4.60;99.90;;;;;;5065041;28;20485;-86
2023/03/05 08:25:03;;;;;;;14.60;1.60;;;6.10;99.90;;;;;;5063079;28;20032;-86
2023/03/05 08:27:29;;;;;;;6.47;1.70;;;4.60;99.90;;;;;;5050814;28;20041;-86
2023/03/05 08:29:55;;;;;;;8.20;1.45;;;4.70;99.90;;;;;;5067394;28;20585;-85
2023/03/05 08:32:20;;;;;;;9.73;1.88;;;6.30;99.90;;;;;;5060179;28;20041;-86
2023/03/05 08:34:46;;;;;;;7.97;1.60;;;4.70;99.90;;;;;;5086322;28;20505;-84
2023/03/05 08:37:12;;;;;;;10.48;2.42;;;6.20;99.90;;;;;;5069571;28;20102;-87
2023/03/05 08:39:38;;;;;;;7.50;1.58;;;;;;;;;;5044014;28;20032;-84
2023/03/05 08:42:04;;;;;;;9.95;1.90;;;5.00;99.90;;;;;;5057123;28;20048;-85
2023/03/05 08:44:30;;;;;;;8.60;1.92;;;5.10;99.90;;;;;;5069533;28;20041;-86
2023/03/05 08:46:55;;;;;;;7.50;1.55;;;5.20;99.90;;;;;;5074019;28;20489;-85
2023/03/05 08:49:26;;;;;;;6.72;1.70;;;5.40;99.90;;;;;;5047956;28;20616;-84
2023/03/05 08:51:54;;;;;;;7.95;1.55;;;5.40;99.90;;;;;;5049653;28;20040;-83
2023/03/05 08:54:20;;;;;;;7.07;1.50;;;5.30;99.90;;;;;;5065315;28;20037;-85
2023/03/05 08:56:49;;;;;;;7.85;1.80;;;5.30;99.90;;;;;;5078324;28;20047;-86
2023/03/05 08:59:17;;;;;;;7.28;1.73;;;5.30;99.90;;;;;;5059613;28;20167;-85
2023/03/05 09:02:09;;;;;;;9.27;2.10;;;6.00;99.90;;;;;;5033448;28;20445;-84
2023/03/05 09:04:46;;;;;;;4.95;1.50;;;6.30;99.90;;;;;;5066042;28;20047;-85
2023/03/05 09:07:12;;;;;;;5.35;1.15;;;5.40;99.90;;;;;;5064552;28;20098;-85
2023/03/05 09:10:06;;;;;;;7.75;1.70;;;5.60;99.90;;;;;;5064197;28;20588;-83
2023/03/05 09:12:34;;;;;;;8.57;1.45;;;5.60;99.90;;;;;;5067593;28;20251;-83
2023/03/05 09:15:10;;;;;;;7.00;1.58;;;5.60;99.90;;;;;;5067928;28;20040;-83
2023/03/05 09:17:40;;;;;;;9.23;1.80;;;5.60;99.90;;;;;;5065343;28;20128;-85
2023/03/05 09:20:11;;;;;;;8.32;1.58;;;5.60;99.90;;;;;;5047081;28;20051;-85
2023/03/05 09:22:37;;;;;;;5.45;1.65;;;5.60;99.90;;;;;;5047947;28;20036;-84
2023/03/05 09:25:04;;;;;;;9.35;1.75;;;5.60;99.90;;;;;;5066724;28;20044;-82
2023/03/05 09:27:36;;;;;;;7.03;1.23;;;5.50;99.90;;;;;;5047921;28;20044;-81
2023/03/05 09:30:02;;;;;;;5.63;1.17;;;5.40;99.90;;;;;;5079913;28;20524;-83
2023/03/05 09:32:28;;;;;;;3.47;1.35;;;5.40;99.90;;;;;;5048683;28;20052;-83
2023/03/05 09:34:54;;;;;;;7.75;1.63;;;5.40;99.90;;;;;;5064348;28;20512;-82
2023/03/05 09:37:19;;;;;;;2.53;1.08;;;5.50;99.90;;;;;;5044115;28;20044;-85
2023/03/05 09:39:45;;;;;;;5.60;1.52;;;5.60;99.90;;;;;;5065905;28;20038;-82
2023/03/05 09:42:29;;;;;;;5.15;1.23;;;6.20;99.90;;;;;;5049526;28;20083;-84
2023/03/05 09:45:23;;;;;;;6.13;1.50;;;5.80;99.90;;;;;;5063211;28;20711;-84
2023/03/05 09:48:19;;;;;;;6.03;1.50;;;5.80;99.90;;;;;;5051960;28;20459;-83
2023/03/05 09:50:49;;;;;;;7.75;1.30;;;7.40;99.90;;;;;;5062863;28;20040;-83
2023/03/05 09:53:23;;;;;;;7.10;1.40;;;6.00;99.90;;;;;;5063637;28;20037;-85
2023/03/05 09:55:54;;;;;;;8.45;1.60;;;6.20;99.90;;;;;;5065389;28;20051;-84
2023/03/05 09:58:58;;;;;;;6.38;1.45;;;8.50;99.90;;;;;;5046468;28;20035;-85
2023/03/05 10:01:38;;;;;;;8.55;1.50;;;6.80;99.90;;;;;;5020715;28;20033;-85
2023/03/05 10:04:38;;;;;;;7.05;1.42;;;6.90;99.90;;;;;;5066168;28;20044;-86
2023/03/05 10:07:16;;;;;;;9.48;1.50;;;6.50;99.90;;;;;;5047575;28;20043;-86
2023/03/05 10:09:53;;;;;;;6.85;1.38;;;6.30;99.90;;;;;;5065825;28;20066;-88
2023/03/05 10:12:37;;;;;;;8.77;1.42;;;6.20;99.90;;;;;;5063826;28;20059;-86
2023/03/05 10:15:28;;;;;;;8.32;2.05;;;6.10;99.90;;;;;;5061445;28;20044;-86
2023/03/05 10:18:04;;;;;;;6.45;1.40;;;6.10;99.90;;;;;;5016389;28;20106;-84
2023/03/05 10:20:51;;;;;;;7.28;1.50;;;6.10;99.90;;;;;;5047837;28;20131;-86
2023/03/05 10:23:28;;;;;;;8.70;1.80;;;6.10;99.90;;;;;;5048472;28;20486;-85
2023/03/05 10:26:33;;;;;;;4.82;1.20;;;6.20;99.90;;;;;;5065249;28;20040;-84
2023/03/05 10:29:02;;;;;;;4.63;1.27;;;6.60;99.90;;;;;;5064916;28;20060;-85
2023/03/05 10:31:57;;;;;;;7.82;1.38;;;6.30;99.90;;;;;;5065991;28;20043;-85
2023/03/05 10:34:40;;;;;;;9.55;1.98;;;6.30;99.90;;;;;;5063348;28;20450;-84
2023/03/05 10:37:26;;;;;;;3.83;1.15;;;6.30;99.90;;;;;;5048783;28;20425;-86
2023/03/05 10:40:17;;;;;;;3.65;1.08;;;6.40;99.90;;;;;;5048286;28;20068;-85
2023/03/05 10:43:20;;;;;;;8.27;2.25;;;6.40;99.90;;;;;;5064039;28;20082;-85
2023/03/05 10:45:49;;;;;;;3.22;1.10;;;6.40;99.90;;;;;;5063137;28;20064;-83
2023/03/05 10:48:45;;;;;;;7.55;1.42;;;6.50;99.90;;;;;;5064919;28;20041;-85
2023/03/05 10:51:17;;;;;;;5.18;1.20;;;6.50;99.90;;;;;;5063787;28;20516;-84
2023/03/05 10:53:56;;;;;;;6.18;1.55;;;6.60;99.90;;;;;;5064612;28;20033;-84
2023/03/05 10:56:26;;;;;;;6.22;1.20;;;6.50;99.90;;;;;;5063673;28;20123;-85
2023/03/05 10:58:52;;;;;;;4.15;1.13;;;6.50;99.90;;;;;;5048710;28;20524;-84
2023/03/05 11:01:24;;;;;;;7.20;1.38;;;6.50;99.90;;;;;;5064981;28;20486;-86
2023/03/05 11:04:05;;;;;;;7.47;1.47;;;7.70;99.90;;;;;;5063925;28;20060;-86
2023/03/05 11:06:45;;;;;;;7.57;1.65;;;6.80;99.90;;;;;;5063973;28;20294;-86
2023/03/05 11:09:27;;;;;;;6.53;1.50;;;6.70;99.90;;;;;;5045316;28;20512;-85
2023/03/05 11:12:18;;;;;;;4.53;1.20;;;6.70;99.90;;;;;;5045451;28;20067;-85
2023/03/05 11:15:06;;;;;;;7.40;1.75;;;6.70;99.90;;;;;;5057876;28;20505;-84
2023/03/05 11:17:37;;;;;;;8.95;1.52;;;6.80;99.90;;;;;;5064815;28;20124;-85
2023/03/05 11:20:21;;;;;;;7.38;1.98;;;7.00;99.90;;;;;;5063643;28;20063;-85
2023/03/05 11:23:08;;;;;;;6.38;1.50;;;7.30;99.90;;;;;;5063210;28;20036;-85
2023/03/05 11:25:58;;;;;;;6.65;1.45;;;7.50;99.90;;;;;;5062311;28;20028;-85
2023/03/05 11:28:35;;;;;;;10.25;1.83;;;7.60;99.90;;;;;;5063649;28;20781;-85
2023/03/05 11:31:06;;;;;;;5.55;1.30;;;7.40;99.90;;;;;;5062558;28;20131;-84
2023/03/05 11:33:33;;;;;;;5.78;1.17;;;7.20;99.90;;;;;;5062266;28;20032;-85
2023/03/05 11:36:32;;;;;;;6.10;1.38;;;8.40;99.90;;;;;;5061164;28;20270;-84
2023/03/05 11:39:14;;;;;;;8.57;1.40;;;6.80;99.90;;;;;;5039124;28;20047;-85
2023/03/05 11:41:49;;;;;;;8.02;1.45;;;6.90;99.90;;;;;;5077000;28;20492;-84
2023/03/05 11:44:49;;;;;;;9.13;1.58;;;7.00;99.90;;;;;;5044118;28;20056;-85
2023/03/05 11:47:33;;;;;;;6.40;1.30;;;7.10;99.90;;;;;;5044171;28;20742;-85
2023/03/05 11:50:22;;;;;;;4.85;1.33;;;7.10;99.90;;;;;;5062866;28;20070;-84
2023/03/05 11:52:54;;;;;;;5.93;1.40;;;7.20;99.90;;;;;;5051938;28;20052;-85
2023/03/05 11:55:26;;;;;;;5.75;1.50;;;7.80;99.90;;;;;;5064720;28;20040;-86
2023/03/05 11:58:22;;;;;;;5.70;1.40;;;7.60;99.90;;;;;;5061357;28;20037;-86
2023/03/05 12:00:48;;;;;;;5.38;1.30;;;7.60;99.90;;;;;;5062281;28;20037;-85
2023/03/05 12:03:17;;;;;;;5.40;1.20;;;8.90;99.90;;;;;;5062703;28;20114;-85
2023/03/05 12:05:52;;;;;;;6.07;1.40;;;7.90;99.90;;;;;;5046131;28;20336;-85
2023/03/05 12:08:41;;;;;;;5.95;1.55;;;7.30;99.90;;;;;;5061111;28;20044;-85
2023/03/05 12:11:16;;;;;;;4.80;1.50;;;6.90;99.90;;;;;;5060976;28;20362;-86
2023/03/05 12:13:47;;;;;;;6.10;1.48;;;7.40;99.90;;;;;;5077984;28;20025;-85
2023/03/05 12:16:27;;;;;;;7.85;1.60;;;7.90;99.90;;;;;;5063849;28;20044;-84
2023/03/05 12:19:27;;;;;;;4.95;1.13;;;6.80;99.90;;;;;;5045154;28;20039;-85
2023/03/05 12:21:53;;;;;;;7.00;1.50;;;6.80;99.90;;;;;;5062221;28;20562;-85
2023/03/05 12:24:22;;;;;;;9.43;1.70;;;7.90;99.90;;;;;;5060924;28;20033;-86
2023/03/05 12:27:03;;;;;;;5.63;1.40;;;7.00;99.90;;;;;;5062355;28;20404;-85
2023/03/05 12:29:31;;;;;;;7.20;1.50;;;8.70;99.90;;;;;;5039089;28;20586;-85
2023/03/05 12:32:01;;;;;;;6.18;1.20;;;7.30;99.90;;;;;;4709840;28;10000451;-85
2023/03/05 12:34:38;;;;;;;6.07;1.38;;;7.30;99.90;;;;;;5061809;28;20049;-86
2023/03/05 12:37:12;;;;;;;7.05;1.70;;;7.20;99.90;;;;;;5059704;28;20477;-86
2023/03/05 12:39:46;;;;;;;5.95;1.60;;;7.20;99.90;;;;;;5044816;28;20036;-85
2023/03/05 12:42:32;;;;;;;6.70;1.40;;;7.80;99.90;;;;;;5060008;28;20049;-85
2023/03/05 12:45:22;;;;;;;6.60;1.35;;;7.70;99.90;;;;;;5045807;28;20185;-83
2023/03/05 12:48:10;;;;;;;6.57;1.45;;;7.80;99.90;;;;;;5043784;28;20035;-85
2023/03/05 12:50:36;;;;;;;5.70;1.33;;;7.50;99.90;;;;;;5061182;28;20455;-85
2023/03/05 12:53:19;;;;;;;10.27;1.67;;;7.00;99.90;;;;;;5059056;28;20051;-83
2023/03/05 12:55:45;;;;;;;6.70;1.73;;;;;;;;;;5057356;28;20036;-85
2023/03/05 12:58:18;;;;;;;8.02;1.60;;;7.00;99.90;;;;;;5056890;28;20055;-84
2023/03/05 13:00:48;;;;;;;6.88;1.40;;;7.80;99.90;;;;;;5058385;28;20033;-85
2023/03/05 13:03:45;;;;;;;5.53;1.40;;;7.20;99.90;;;;;;5058600;28;20040;-86
2023/03/05 13:06:29;;;;;;;5.78;1.35;;;7.40;99.90;;;;;;5061028;28;20048;-85
2023/03/05 13:09:21;;;;;;;6.20;1.30;;;7.80;99.90;;;;;;5062292;28;20036;-84
2023/03/05 13:11:50;;;;;;;5.32;1.30;;;8.10;99.90;;;;;;5060132;28;20033;-84
2023/03/05 13:14:30;;;;;;;4.40;1.20;;;8.20;99.90;;;;;;5058523;28;20093;-84